sensor_id;sensor_type;location;lat;lon;timestamp;P1;durP1;ratioP1;P2;durP2;ratioP2
842;SDS011;407;48.884;9.126;2023-02-12T00:00:09;41.33;;;20.02;;
842;SDS011;407;48.884;9.126;2023-02-12T00:02:36;38.47;;;18.83;;
842;SDS011;407;48.884;9.126;2023-02-12T00:05:02;41.03;;;19.35;;
842;SDS011;407;48.884;9.126;2023-02-12T00:07:29;42.27;;;20.07;;
842;SDS011;407;48.884;9.126;2023-02-12T00:09:55;39.83;;;19.00;;
842;SDS011;407;48.884;9.126;2023-02-12T00:12:21;38.13;;;20.45;;
842;SDS011;407;48.884;9.126;2023-02-12T00:14:46;40.60;;;20.73;;
842;SDS011;407;48.884;9.126;2023-02-12T00:17:12;37.90;;;20.20;;
842;SDS011;407;48.884;9.126;2023-02-12T00:19:38;41.33;;;20.27;;
842;SDS011;407;48.884;9.126;2023-02-12T00:22:03;39.63;;;18.38;;
842;SDS011;407;48.884;9.126;2023-02-12T00:24:29;36.73;;;19.47;;
842;SDS011;407;48.884;9.126;2023-02-12T00:26:54;38.15;;;19.08;;
842;SDS011;407;48.884;9.126;2023-02-12T00:29:20;36.60;;;19.40;;
842;SDS011;407;48.884;9.126;2023-02-12T00:31:47;35.77;;;19.03;;
842;SDS011;407;48.884;9.126;2023-02-12T00:34:12;36.10;;;18.50;;
842;SDS011;407;48.884;9.126;2023-02-12T00:36:38;39.20;;;18.23;;
842;SDS011;407;48.884;9.126;2023-02-12T00:39:05;38.93;;;19.80;;
842;SDS011;407;48.884;9.126;2023-02-12T00:41:30;34.60;;;18.30;;
842;SDS011;407;48.884;9.126;2023-02-12T00:43:56;40.87;;;21.00;;
842;SDS011;407;48.884;9.126;2023-02-12T00:46:22;49.45;;;24.25;;
842;SDS011;407;48.884;9.126;2023-02-12T00:48:47;43.20;;;20.83;;
842;SDS011;407;48.884;9.126;2023-02-12T00:51:13;37.25;;;18.80;;
842;SDS011;407;48.884;9.126;2023-02-12T00:53:39;43.78;;;18.73;;
842;SDS011;407;48.884;9.126;2023-02-12T00:56:05;41.30;;;20.33;;
842;SDS011;407;48.884;9.126;2023-02-12T00:58:31;40.05;;;18.38;;
842;SDS011;407;48.884;9.126;2023-02-12T01:00:56;36.70;;;17.87;;
842;SDS011;407;48.884;9.126;2023-02-12T01:03:22;39.13;;;18.08;;
842;SDS011;407;48.884;9.126;2023-02-12T01:05:48;37.75;;;17.13;;
842;SDS011;407;48.884;9.126;2023-02-12T01:08:15;38.33;;;18.67;;
842;SDS011;407;48.884;9.126;2023-02-12T01:10:41;35.72;;;17.92;;
842;SDS011;407;48.884;9.126;2023-02-12T01:13:11;35.42;;;16.50;;
842;SDS011;407;48.884;9.126;2023-02-12T01:15:38;34.20;;;17.08;;
842;SDS011;407;48.884;9.126;2023-02-12T01:18:03;36.50;;;17.77;;
842;SDS011;407;48.884;9.126;2023-02-12T01:20:29;35.23;;;17.80;;
842;SDS011;407;48.884;9.126;2023-02-12T01:22:55;39.00;;;18.55;;
842;SDS011;407;48.884;9.126;2023-02-12T01:25:20;36.03;;;17.60;;
842;SDS011;407;48.884;9.126;2023-02-12T01:27:46;31.85;;;17.25;;
842;SDS011;407;48.884;9.126;2023-02-12T01:30:13;32.87;;;17.60;;
842;SDS011;407;48.884;9.126;2023-02-12T01:32:39;38.90;;;18.90;;
842;SDS011;407;48.884;9.126;2023-02-12T01:35:06;35.93;;;18.40;;
842;SDS011;407;48.884;9.126;2023-02-12T01:37:34;41.30;;;20.60;;
842;SDS011;407;48.884;9.126;2023-02-12T01:40:01;34.13;;;18.15;;
842;SDS011;407;48.884;9.126;2023-02-12T01:42:28;35.65;;;17.88;;
842;SDS011;407;48.884;9.126;2023-02-12T01:47:41;40.92;;;19.27;;
842;SDS011;407;48.884;9.126;2023-02-12T01:50:09;37.75;;;19.10;;
842;SDS011;407;48.884;9.126;2023-02-12T01:52:39;38.00;;;16.05;;
842;SDS011;407;48.884;9.126;2023-02-12T01:55:09;36.90;;;17.67;;
842;SDS011;407;48.884;9.126;2023-02-12T01:57:38;37.33;;;16.87;;
842;SDS011;407;48.884;9.126;2023-02-12T02:00:08;32.50;;;17.25;;
842;SDS011;407;48.884;9.126;2023-02-12T02:02:36;35.25;;;18.80;;
842;SDS011;407;48.884;9.126;2023-02-12T02:05:03;33.70;;;16.67;;
842;SDS011;407;48.884;9.126;2023-02-12T02:07:31;34.80;;;18.33;;
842;SDS011;407;48.884;9.126;2023-02-12T02:09:57;42.17;;;18.85;;
842;SDS011;407;48.884;9.126;2023-02-12T02:12:27;41.72;;;19.00;;
842;SDS011;407;48.884;9.126;2023-02-12T02:15:12;34.20;;;17.92;;
842;SDS011;407;48.884;9.126;2023-02-12T02:23:44;36.08;;;18.05;;
842;SDS011;407;48.884;9.126;2023-02-12T02:32:28;34.67;;;16.90;;
842;SDS011;407;48.884;9.126;2023-02-12T02:37:51;37.35;;;17.90;;
842;SDS011;407;48.884;9.126;2023-02-12T02:40:36;35.08;;;16.90;;
842;SDS011;407;48.884;9.126;2023-02-12T02:43:25;32.07;;;16.90;;
842;SDS011;407;48.884;9.126;2023-02-12T02:46:01;34.50;;;17.67;;
842;SDS011;407;48.884;9.126;2023-02-12T02:48:37;36.47;;;17.25;;
842;SDS011;407;48.884;9.126;2023-02-12T02:51:10;37.03;;;18.40;;
842;SDS011;407;48.884;9.126;2023-02-12T02:53:42;39.42;;;18.83;;
842;SDS011;407;48.884;9.126;2023-02-12T02:56:19;35.38;;;17.73;;
842;SDS011;407;48.884;9.126;2023-02-12T02:58:48;34.00;;;18.08;;
842;SDS011;407;48.884;9.126;2023-02-12T03:01:19;35.00;;;17.57;;
842;SDS011;407;48.884;9.126;2023-02-12T03:09:03;37.92;;;18.58;;
842;SDS011;407;48.884;9.126;2023-02-12T03:11:36;35.35;;;17.30;;
842;SDS011;407;48.884;9.126;2023-02-12T03:14:06;32.30;;;16.60;;
842;SDS011;407;48.884;9.126;2023-02-12T03:16:34;35.00;;;17.13;;
842;SDS011;407;48.884;9.126;2023-02-12T03:19:46;40.05;;;19.48;;
842;SDS011;407;48.884;9.126;2023-02-12T03:22:10;36.97;;;17.48;;
842;SDS011;407;48.884;9.126;2023-02-12T03:27:17;32.38;;;17.50;;
842;SDS011;407;48.884;9.126;2023-02-12T03:29:47;37.33;;;18.30;;
842;SDS011;407;48.884;9.126;2023-02-12T03:38:14;33.13;;;17.70;;
842;SDS011;407;48.884;9.126;2023-02-12T03:43:41;35.50;;;17.40;;
842;SDS011;407;48.884;9.126;2023-02-12T03:47:17;36.90;;;18.20;;
842;SDS011;407;48.884;9.126;2023-02-12T03:49:43;36.90;;;17.52;;
842;SDS011;407;48.884;9.126;2023-02-12T03:52:20;38.95;;;18.20;;
842;SDS011;407;48.884;9.126;2023-02-12T03:54:46;34.75;;;16.92;;
842;SDS011;407;48.884;9.126;2023-02-12T03:57:17;35.65;;;18.10;;
842;SDS011;407;48.884;9.126;2023-02-12T03:59:45;36.35;;;17.92;;
842;SDS011;407;48.884;9.126;2023-02-12T04:02:13;40.25;;;18.83;;
842;SDS011;407;48.884;9.126;2023-02-12T04:04:40;36.90;;;17.23;;
842;SDS011;407;48.884;9.126;2023-02-12T04:07:07;33.88;;;18.35;;
842;SDS011;407;48.884;9.126;2023-02-12T04:09:35;38.40;;;17.48;;
842;SDS011;407;48.884;9.126;2023-02-12T04:12:06;31.75;;;17.05;;
842;SDS011;407;48.884;9.126;2023-02-12T04:14:53;35.53;;;15.90;;
842;SDS011;407;48.884;9.126;2023-02-12T04:20:39;36.33;;;17.27;;
842;SDS011;407;48.884;9.126;2023-02-12T04:26:42;35.78;;;17.83;;
842;SDS011;407;48.884;9.126;2023-02-12T04:29:21;38.40;;;17.98;;
842;SDS011;407;48.884;9.126;2023-02-12T04:34:49;35.17;;;17.42;;
842;SDS011;407;48.884;9.126;2023-02-12T04:37:23;35.00;;;17.60;;
842;SDS011;407;48.884;9.126;2023-02-12T04:39:55;35.80;;;17.50;;
842;SDS011;407;48.884;9.126;2023-02-12T04:42:25;38.42;;;17.88;;
842;SDS011;407;48.884;9.126;2023-02-12T04:44:50;35.95;;;17.83;;
842;SDS011;407;48.884;9.126;2023-02-12T04:47:16;36.40;;;16.90;;
842;SDS011;407;48.884;9.126;2023-02-12T04:49:42;34.25;;;17.08;;
842;SDS011;407;48.884;9.126;2023-02-12T04:52:07;33.57;;;17.03;;
842;SDS011;407;48.884;9.126;2023-02-12T04:54:33;36.30;;;18.38;;
842;SDS011;407;48.884;9.126;2023-02-12T04:56:59;37.25;;;18.00;;
842;SDS011;407;48.884;9.126;2023-02-12T04:59:25;32.05;;;17.55;;
842;SDS011;407;48.884;9.126;2023-02-12T05:01:51;36.33;;;18.47;;
842;SDS011;407;48.884;9.126;2023-02-12T05:04:16;40.88;;;19.30;;
842;SDS011;407;48.884;9.126;2023-02-12T05:06:43;37.28;;;17.00;;
842;SDS011;407;48.884;9.126;2023-02-12T05:09:12;38.85;;;18.70;;
842;SDS011;407;48.884;9.126;2023-02-12T05:11:43;33.73;;;19.33;;
842;SDS011;407;48.884;9.126;2023-02-12T05:14:09;34.55;;;18.02;;
842;SDS011;407;48.884;9.126;2023-02-12T05:16:35;33.58;;;18.33;;
842;SDS011;407;48.884;9.126;2023-02-12T05:19:00;36.58;;;18.58;;
842;SDS011;407;48.884;9.126;2023-02-12T05:21:26;37.70;;;18.10;;
842;SDS011;407;48.884;9.126;2023-02-12T05:23:52;35.15;;;18.55;;
842;SDS011;407;48.884;9.126;2023-02-12T05:26:27;36.60;;;19.45;;
842;SDS011;407;48.884;9.126;2023-02-12T05:28:52;38.43;;;18.43;;
842;SDS011;407;48.884;9.126;2023-02-12T05:31:18;36.13;;;17.90;;
842;SDS011;407;48.884;9.126;2023-02-12T05:33:45;37.08;;;18.17;;
842;SDS011;407;48.884;9.126;2023-02-12T05:36:16;38.35;;;19.27;;
842;SDS011;407;48.884;9.126;2023-02-12T05:38:44;37.40;;;19.58;;
842;SDS011;407;48.884;9.126;2023-02-12T05:41:11;42.20;;;20.80;;
842;SDS011;407;48.884;9.126;2023-02-12T05:43:39;36.78;;;18.02;;
842;SDS011;407;48.884;9.126;2023-02-12T05:46:06;32.30;;;17.83;;
842;SDS011;407;48.884;9.126;2023-02-12T05:48:33;33.90;;;18.50;;
842;SDS011;407;48.884;9.126;2023-02-12T05:51:06;40.42;;;19.17;;
842;SDS011;407;48.884;9.126;2023-02-12T05:53:34;38.83;;;19.10;;
842;SDS011;407;48.884;9.126;2023-02-12T05:58:44;41.42;;;18.83;;
842;SDS011;407;48.884;9.126;2023-02-12T06:01:15;38.63;;;18.70;;
842;SDS011;407;48.884;9.126;2023-02-12T06:03:50;36.95;;;17.55;;
842;SDS011;407;48.884;9.126;2023-02-12T06:06:16;37.13;;;18.88;;
842;SDS011;407;48.884;9.126;2023-02-12T06:08:41;37.77;;;17.90;;
842;SDS011;407;48.884;9.126;2023-02-12T06:11:09;39.08;;;18.75;;
842;SDS011;407;48.884;9.126;2023-02-12T06:13:37;35.60;;;18.58;;
842;SDS011;407;48.884;9.126;2023-02-12T06:16:03;34.57;;;17.70;;
842;SDS011;407;48.884;9.126;2023-02-12T06:18:29;35.50;;;18.40;;
842;SDS011;407;48.884;9.126;2023-02-12T06:20:55;38.67;;;19.30;;
842;SDS011;407;48.884;9.126;2023-02-12T06:23:22;34.93;;;18.40;;
842;SDS011;407;48.884;9.126;2023-02-12T06:25:49;36.40;;;18.52;;
842;SDS011;407;48.884;9.126;2023-02-12T06:28:19;38.38;;;18.55;;
842;SDS011;407;48.884;9.126;2023-02-12T06:30:44;42.17;;;20.63;;
842;SDS011;407;48.884;9.126;2023-02-12T06:33:11;39.60;;;20.20;;
842;SDS011;407;48.884;9.126;2023-02-12T06:35:37;45.97;;;21.38;;
842;SDS011;407;48.884;9.126;2023-02-12T06:38:03;40.85;;;19.52;;
842;SDS011;407;48.884;9.126;2023-02-12T06:40:29;42.35;;;19.98;;
842;SDS011;407;48.884;9.126;2023-02-12T06:42:55;46.30;;;22.93;;
842;SDS011;407;48.884;9.126;2023-02-12T06:45:22;42.47;;;22.33;;
842;SDS011;407;48.884;9.126;2023-02-12T06:47:47;46.72;;;23.17;;
842;SDS011;407;48.884;9.126;2023-02-12T06:50:13;45.17;;;22.53;;
842;SDS011;407;48.884;9.126;2023-02-12T06:52:39;42.17;;;20.90;;
842;SDS011;407;48.884;9.126;2023-02-12T06:55:04;41.40;;;20.40;;
842;SDS011;407;48.884;9.126;2023-02-12T06:57:30;34.80;;;18.88;;
842;SDS011;407;48.884;9.126;2023-02-12T06:59:56;34.58;;;18.30;;
842;SDS011;407;48.884;9.126;2023-02-12T07:02:21;37.43;;;18.73;;
842;SDS011;407;48.884;9.126;2023-02-12T07:04:47;32.47;;;18.10;;
842;SDS011;407;48.884;9.126;2023-02-12T07:07:13;41.63;;;19.23;;
842;SDS011;407;48.884;9.126;2023-02-12T07:09:38;33.15;;;17.42;;
842;SDS011;407;48.884;9.126;2023-02-12T07:12:04;41.70;;;19.40;;
842;SDS011;407;48.884;9.126;2023-02-12T07:14:30;34.80;;;18.63;;
842;SDS011;407;48.884;9.126;2023-02-12T07:16:56;35.27;;;18.63;;
842;SDS011;407;48.884;9.126;2023-02-12T07:19:22;35.42;;;17.85;;
842;SDS011;407;48.884;9.126;2023-02-12T07:21:54;39.17;;;19.42;;
842;SDS011;407;48.884;9.126;2023-02-12T07:24:20;37.63;;;19.10;;
842;SDS011;407;48.884;9.126;2023-02-12T07:26:46;36.17;;;18.43;;
842;SDS011;407;48.884;9.126;2023-02-12T07:29:12;34.95;;;18.58;;
842;SDS011;407;48.884;9.126;2023-02-12T07:31:37;35.57;;;18.97;;
842;SDS011;407;48.884;9.126;2023-02-12T07:34:03;35.67;;;18.40;;
842;SDS011;407;48.884;9.126;2023-02-12T07:36:29;37.83;;;19.67;;
842;SDS011;407;48.884;9.126;2023-02-12T07:38:56;39.15;;;19.70;;
842;SDS011;407;48.884;9.126;2023-02-12T07:41:24;41.28;;;20.23;;
842;SDS011;407;48.884;9.126;2023-02-12T07:43:55;37.63;;;20.05;;
842;SDS011;407;48.884;9.126;2023-02-12T07:46:24;40.20;;;19.63;;
842;SDS011;407;48.884;9.126;2023-02-12T07:48:55;36.35;;;18.70;;
842;SDS011;407;48.884;9.126;2023-02-12T07:51:22;41.30;;;20.33;;
842;SDS011;407;48.884;9.126;2023-02-12T07:53:48;43.08;;;21.40;;
842;SDS011;407;48.884;9.126;2023-02-12T07:56:15;39.42;;;19.98;;
842;SDS011;407;48.884;9.126;2023-02-12T07:58:44;34.80;;;19.50;;
842;SDS011;407;48.884;9.126;2023-02-12T08:01:15;39.63;;;20.67;;
842;SDS011;407;48.884;9.126;2023-02-12T08:03:46;41.00;;;21.90;;
842;SDS011;407;48.884;9.126;2023-02-12T08:06:14;39.88;;;19.85;;
842;SDS011;407;48.884;9.126;2023-02-12T08:08:43;42.55;;;20.00;;
842;SDS011;407;48.884;9.126;2023-02-12T08:11:10;40.80;;;20.75;;
842;SDS011;407;48.884;9.126;2023-02-12T08:13:36;38.00;;;18.88;;
842;SDS011;407;48.884;9.126;2023-02-12T08:16:03;36.65;;;19.73;;
842;SDS011;407;48.884;9.126;2023-02-12T08:18:31;39.50;;;19.87;;
842;SDS011;407;48.884;9.126;2023-02-12T08:21:04;40.13;;;20.55;;
842;SDS011;407;48.884;9.126;2023-02-12T08:23:32;36.95;;;20.67;;
842;SDS011;407;48.884;9.126;2023-02-12T08:26:08;41.55;;;20.45;;
842;SDS011;407;48.884;9.126;2023-02-12T08:28:40;41.63;;;20.17;;
842;SDS011;407;48.884;9.126;2023-02-12T08:31:15;41.47;;;21.45;;
842;SDS011;407;48.884;9.126;2023-02-12T08:33:44;40.28;;;20.75;;
842;SDS011;407;48.884;9.126;2023-02-12T08:36:11;40.70;;;20.27;;
842;SDS011;407;48.884;9.126;2023-02-12T08:38:39;38.92;;;20.15;;
842;SDS011;407;48.884;9.126;2023-02-12T08:41:07;39.45;;;20.70;;
842;SDS011;407;48.884;9.126;2023-02-12T08:43:37;40.92;;;22.02;;
842;SDS011;407;48.884;9.126;2023-02-12T08:46:04;40.57;;;21.30;;
842;SDS011;407;48.884;9.126;2023-02-12T08:48:35;44.43;;;20.70;;
842;SDS011;407;48.884;9.126;2023-02-12T08:51:05;43.03;;;21.73;;
842;SDS011;407;48.884;9.126;2023-02-12T08:53:31;36.97;;;19.92;;
842;SDS011;407;48.884;9.126;2023-02-12T08:55:57;47.90;;;21.58;;
842;SDS011;407;48.884;9.126;2023-02-12T08:58:23;44.85;;;21.88;;
842;SDS011;407;48.884;9.126;2023-02-12T09:00:49;40.17;;;21.10;;
842;SDS011;407;48.884;9.126;2023-02-12T09:03:14;40.67;;;20.33;;
842;SDS011;407;48.884;9.126;2023-02-12T09:05:40;42.83;;;20.63;;
842;SDS011;407;48.884;9.126;2023-02-12T09:08:06;40.40;;;19.98;;
842;SDS011;407;48.884;9.126;2023-02-12T09:10:33;40.53;;;20.30;;
842;SDS011;407;48.884;9.126;2023-02-12T09:12:59;42.45;;;20.98;;
842;SDS011;407;48.884;9.126;2023-02-12T09:15:24;43.20;;;20.80;;
842;SDS011;407;48.884;9.126;2023-02-12T09:17:50;44.83;;;21.85;;
842;SDS011;407;48.884;9.126;2023-02-12T09:20:16;40.63;;;20.27;;
842;SDS011;407;48.884;9.126;2023-02-12T09:22:41;41.90;;;20.88;;
842;SDS011;407;48.884;9.126;2023-02-12T09:25:07;46.70;;;23.30;;
842;SDS011;407;48.884;9.126;2023-02-12T09:27:32;42.77;;;20.50;;
842;SDS011;407;48.884;9.126;2023-02-12T09:29:58;45.15;;;21.58;;
842;SDS011;407;48.884;9.126;2023-02-12T09:32:23;45.53;;;23.13;;
842;SDS011;407;48.884;9.126;2023-02-12T09:34:49;43.80;;;23.40;;
842;SDS011;407;48.884;9.126;2023-02-12T09:37:15;38.90;;;20.13;;
842;SDS011;407;48.884;9.126;2023-02-12T09:39:40;44.40;;;22.27;;
842;SDS011;407;48.884;9.126;2023-02-12T09:42:22;43.05;;;22.20;;
842;SDS011;407;48.884;9.126;2023-02-12T09:45:18;37.90;;;19.45;;
842;SDS011;407;48.884;9.126;2023-02-12T09:47:53;46.60;;;23.00;;
842;SDS011;407;48.884;9.126;2023-02-12T09:50:40;44.10;;;21.17;;
842;SDS011;407;48.884;9.126;2023-02-12T09:53:22;42.35;;;22.33;;
842;SDS011;407;48.884;9.126;2023-02-12T09:55:51;44.17;;;21.60;;
842;SDS011;407;48.884;9.126;2023-02-12T09:58:23;40.17;;;19.75;;
842;SDS011;407;48.884;9.126;2023-02-12T10:00:58;39.75;;;20.17;;
842;SDS011;407;48.884;9.126;2023-02-12T10:03:25;46.17;;;20.65;;
842;SDS011;407;48.884;9.126;2023-02-12T10:05:58;41.00;;;19.30;;
842;SDS011;407;48.884;9.126;2023-02-12T10:11:32;40.58;;;19.50;;
842;SDS011;407;48.884;9.126;2023-02-12T10:17:32;38.80;;;18.67;;
842;SDS011;407;48.884;9.126;2023-02-12T10:20:20;43.28;;;19.73;;
842;SDS011;407;48.884;9.126;2023-02-12T10:28:26;35.22;;;16.27;;
842;SDS011;407;48.884;9.126;2023-02-12T10:30:57;30.95;;;16.63;;
842;SDS011;407;48.884;9.126;2023-02-12T10:33:30;32.83;;;15.70;;
842;SDS011;407;48.884;9.126;2023-02-12T10:38:51;26.40;;;12.70;;
842;SDS011;407;48.884;9.126;2023-02-12T10:41:22;27.77;;;14.10;;
842;SDS011;407;48.884;9.126;2023-02-12T10:43:51;29.03;;;15.13;;
842;SDS011;407;48.884;9.126;2023-02-12T10:46:17;33.53;;;16.65;;
842;SDS011;407;48.884;9.126;2023-02-12T10:48:43;36.13;;;15.90;;
842;SDS011;407;48.884;9.126;2023-02-12T10:53:56;32.20;;;15.15;;
842;SDS011;407;48.884;9.126;2023-02-12T10:56:42;29.27;;;13.87;;
842;SDS011;407;48.884;9.126;2023-02-12T10:59:09;29.67;;;13.57;;
842;SDS011;407;48.884;9.126;2023-02-12T11:01:49;20.42;;;9.40;;
842;SDS011;407;48.884;9.126;2023-02-12T11:04:31;25.33;;;11.25;;
842;SDS011;407;48.884;9.126;2023-02-12T11:06:59;18.38;;;7.70;;
842;SDS011;407;48.884;9.126;2023-02-12T11:09:30;19.20;;;8.27;;
842;SDS011;407;48.884;9.126;2023-02-12T11:12:00;18.00;;;8.63;;
842;SDS011;407;48.884;9.126;2023-02-12T11:14:26;20.83;;;10.40;;
842;SDS011;407;48.884;9.126;2023-02-12T11:19:22;20.92;;;8.23;;
842;SDS011;407;48.884;9.126;2023-02-12T11:22:02;18.10;;;8.65;;
842;SDS011;407;48.884;9.126;2023-02-12T11:24:35;20.58;;;8.30;;
842;SDS011;407;48.884;9.126;2023-02-12T11:29:47;21.80;;;9.30;;
842;SDS011;407;48.884;9.126;2023-02-12T11:32:34;21.00;;;9.45;;
842;SDS011;407;48.884;9.126;2023-02-12T11:37:42;19.45;;;9.10;;
842;SDS011;407;48.884;9.126;2023-02-12T11:40:20;22.02;;;10.20;;
842;SDS011;407;48.884;9.126;2023-02-12T11:42:49;24.95;;;10.23;;
842;SDS011;407;48.884;9.126;2023-02-12T11:45:18;24.08;;;10.30;;
842;SDS011;407;48.884;9.126;2023-02-12T11:47:46;19.98;;;9.07;;
842;SDS011;407;48.884;9.126;2023-02-12T11:52:58;16.02;;;7.10;;
842;SDS011;407;48.884;9.126;2023-02-12T11:55:33;13.55;;;5.45;;
842;SDS011;407;48.884;9.126;2023-02-12T12:00:44;9.80;;;4.30;;
842;SDS011;407;48.884;9.126;2023-02-12T12:03:39;9.30;;;3.00;;
842;SDS011;407;48.884;9.126;2023-02-12T12:09:04;7.97;;;3.15;;
842;SDS011;407;48.884;9.126;2023-02-12T12:14:29;7.75;;;3.20;;
842;SDS011;407;48.884;9.126;2023-02-12T12:17:19;8.30;;;3.20;;
842;SDS011;407;48.884;9.126;2023-02-12T12:20:13;10.07;;;3.40;;
842;SDS011;407;48.884;9.126;2023-02-12T12:22:51;9.03;;;3.43;;
842;SDS011;407;48.884;9.126;2023-02-12T12:28:04;10.15;;;4.15;;
842;SDS011;407;48.884;9.126;2023-02-12T12:39:42;8.20;;;2.85;;
842;SDS011;407;48.884;9.126;2023-02-12T12:54:35;8.50;;;3.28;;
842;SDS011;407;48.884;9.126;2023-02-12T12:59:45;8.43;;;2.70;;
842;SDS011;407;48.884;9.126;2023-02-12T13:02:26;8.75;;;2.60;;
842;SDS011;407;48.884;9.126;2023-02-12T13:17:26;8.50;;;2.88;;
842;SDS011;407;48.884;9.126;2023-02-12T13:20:22;9.07;;;3.17;;
842;SDS011;407;48.884;9.126;2023-02-12T13:23:16;8.75;;;3.40;;
842;SDS011;407;48.884;9.126;2023-02-12T13:28:37;11.68;;;3.50;;
842;SDS011;407;48.884;9.126;2023-02-12T13:31:06;9.27;;;3.42;;
842;SDS011;407;48.884;9.126;2023-02-12T13:33:39;11.23;;;4.03;;
842;SDS011;407;48.884;9.126;2023-02-12T13:36:12;9.00;;;4.00;;
842;SDS011;407;48.884;9.126;2023-02-12T13:38:59;9.88;;;3.72;;
842;SDS011;407;48.884;9.126;2023-02-12T13:41:43;8.65;;;3.70;;
842;SDS011;407;48.884;9.126;2023-02-12T13:44:24;9.00;;;3.70;;
842;SDS011;407;48.884;9.126;2023-02-12T13:49:44;8.60;;;3.60;;
842;SDS011;407;48.884;9.126;2023-02-12T13:52:51;10.40;;;3.92;;
842;SDS011;407;48.884;9.126;2023-02-12T13:55:49;11.18;;;3.47;;
842;SDS011;407;48.884;9.126;2023-02-12T14:01:05;10.57;;;3.88;;
842;SDS011;407;48.884;9.126;2023-02-12T14:04:12;9.87;;;3.90;;
842;SDS011;407;48.884;9.126;2023-02-12T14:09:37;10.32;;;3.80;;
842;SDS011;407;48.884;9.126;2023-02-12T14:19:56;8.85;;;3.65;;
842;SDS011;407;48.884;9.126;2023-02-12T14:35:41;10.25;;;4.10;;
842;SDS011;407;48.884;9.126;2023-02-12T14:40:47;9.00;;;3.42;;
842;SDS011;407;48.884;9.126;2023-02-12T14:43:22;8.20;;;3.08;;
842;SDS011;407;48.884;9.126;2023-02-12T14:45:51;9.38;;;3.55;;
842;SDS011;407;48.884;9.126;2023-02-12T14:51:04;8.70;;;2.95;;
842;SDS011;407;48.884;9.126;2023-02-12T14:53:33;8.50;;;2.80;;
842;SDS011;407;48.884;9.126;2023-02-12T14:56:01;7.63;;;2.45;;
842;SDS011;407;48.884;9.126;2023-02-12T14:58:29;6.75;;;2.30;;
842;SDS011;407;48.884;9.126;2023-02-12T15:00:56;7.78;;;2.78;;
842;SDS011;407;48.884;9.126;2023-02-12T15:11:46;6.90;;;2.87;;
842;SDS011;407;48.884;9.126;2023-02-12T15:24:47;8.40;;;2.40;;
842;SDS011;407;48.884;9.126;2023-02-12T15:27:13;6.97;;;2.40;;
842;SDS011;407;48.884;9.126;2023-02-12T15:29:44;7.82;;;2.30;;
842;SDS011;407;48.884;9.126;2023-02-12T15:32:15;8.40;;;2.57;;
842;SDS011;407;48.884;9.126;2023-02-12T15:34:49;8.02;;;2.22;;
842;SDS011;407;48.884;9.126;2023-02-12T15:37:21;8.23;;;2.85;;
842;SDS011;407;48.884;9.126;2023-02-12T15:39:50;7.90;;;2.10;;
842;SDS011;407;48.884;9.126;2023-02-12T15:42:26;7.75;;;2.78;;
842;SDS011;407;48.884;9.126;2023-02-12T15:47:38;7.78;;;2.58;;
842;SDS011;407;48.884;9.126;2023-02-12T15:50:05;7.53;;;2.50;;
842;SDS011;407;48.884;9.126;2023-02-12T15:52:36;6.93;;;2.13;;
842;SDS011;407;48.884;9.126;2023-02-12T15:55:04;8.20;;;2.60;;
842;SDS011;407;48.884;9.126;2023-02-12T15:57:38;8.00;;;2.92;;
842;SDS011;407;48.884;9.126;2023-02-12T16:00:06;9.07;;;3.17;;
842;SDS011;407;48.884;9.126;2023-02-12T16:02:34;9.95;;;3.70;;
842;SDS011;407;48.884;9.126;2023-02-12T16:05:01;9.37;;;3.83;;
842;SDS011;407;48.884;9.126;2023-02-12T16:07:35;10.25;;;3.85;;
842;SDS011;407;48.884;9.126;2023-02-12T16:10:02;8.27;;;3.83;;
842;SDS011;407;48.884;9.126;2023-02-12T16:12:29;8.93;;;2.97;;
842;SDS011;407;48.884;9.126;2023-02-12T16:14:58;8.07;;;3.50;;
842;SDS011;407;48.884;9.126;2023-02-12T16:17:28;9.90;;;2.90;;
842;SDS011;407;48.884;9.126;2023-02-12T16:20:00;9.52;;;3.30;;
842;SDS011;407;48.884;9.126;2023-02-12T16:22:34;8.32;;;3.00;;
842;SDS011;407;48.884;9.126;2023-02-12T16:25:02;7.47;;;3.00;;
842;SDS011;407;48.884;9.126;2023-02-12T16:27:37;8.63;;;3.20;;
842;SDS011;407;48.884;9.126;2023-02-12T16:30:21;7.57;;;2.70;;
842;SDS011;407;48.884;9.126;2023-02-12T16:32:49;8.00;;;2.70;;
842;SDS011;407;48.884;9.126;2023-02-12T16:42:36;8.10;;;2.93;;
842;SDS011;407;48.884;9.126;2023-02-12T16:48:08;10.70;;;4.10;;
842;SDS011;407;48.884;9.126;2023-02-12T16:50:52;18.27;;;7.97;;
842;SDS011;407;48.884;9.126;2023-02-12T16:56:00;55.50;;;22.85;;
842;SDS011;407;48.884;9.126;2023-02-12T16:58:28;20.08;;;9.68;;
842;SDS011;407;48.884;9.126;2023-02-12T17:00:54;9.47;;;3.70;;
842;SDS011;407;48.884;9.126;2023-02-12T17:03:21;9.40;;;3.20;;
842;SDS011;407;48.884;9.126;2023-02-12T17:05:48;8.18;;;2.70;;
842;SDS011;407;48.884;9.126;2023-02-12T17:08:16;8.77;;;2.97;;
842;SDS011;407;48.884;9.126;2023-02-12T17:10:43;7.77;;;2.50;;
842;SDS011;407;48.884;9.126;2023-02-12T17:13:09;8.55;;;2.72;;
842;SDS011;407;48.884;9.126;2023-02-12T17:15:42;8.32;;;3.10;;
842;SDS011;407;48.884;9.126;2023-02-12T17:18:16;9.30;;;3.00;;
842;SDS011;407;48.884;9.126;2023-02-12T17:20:42;7.40;;;2.70;;
842;SDS011;407;48.884;9.126;2023-02-12T17:23:11;12.10;;;3.40;;
842;SDS011;407;48.884;9.126;2023-02-12T17:25:37;10.20;;;3.22;;
842;SDS011;407;48.884;9.126;2023-02-12T17:28:02;9.10;;;3.30;;
842;SDS011;407;48.884;9.126;2023-02-12T17:30:28;9.65;;;3.55;;
842;SDS011;407;48.884;9.126;2023-02-12T17:32:56;10.23;;;3.70;;
842;SDS011;407;48.884;9.126;2023-02-12T17:35:22;9.10;;;3.63;;
842;SDS011;407;48.884;9.126;2023-02-12T17:37:49;9.90;;;3.70;;
842;SDS011;407;48.884;9.126;2023-02-12T17:40:15;9.77;;;4.18;;
842;SDS011;407;48.884;9.126;2023-02-12T17:42:42;11.75;;;4.85;;
842;SDS011;407;48.884;9.126;2023-02-12T17:45:07;11.17;;;3.70;;
842;SDS011;407;48.884;9.126;2023-02-12T17:47:34;8.88;;;3.30;;
842;SDS011;407;48.884;9.126;2023-02-12T17:50:05;12.38;;;4.10;;
842;SDS011;407;48.884;9.126;2023-02-12T17:52:35;10.27;;;4.13;;
842;SDS011;407;48.884;9.126;2023-02-12T17:55:00;8.95;;;3.72;;
842;SDS011;407;48.884;9.126;2023-02-12T17:57:27;10.30;;;4.40;;
842;SDS011;407;48.884;9.126;2023-02-12T17:59:54;9.30;;;3.67;;
842;SDS011;407;48.884;9.126;2023-02-12T18:02:20;12.00;;;5.37;;
842;SDS011;407;48.884;9.126;2023-02-12T18:04:46;13.90;;;7.50;;
842;SDS011;407;48.884;9.126;2023-02-12T18:07:12;18.97;;;8.23;;
842;SDS011;407;48.884;9.126;2023-02-12T18:09:39;11.75;;;5.68;;
842;SDS011;407;48.884;9.126;2023-02-12T18:12:06;11.38;;;4.50;;
842;SDS011;407;48.884;9.126;2023-02-12T18:14:32;9.82;;;3.90;;
842;SDS011;407;48.884;9.126;2023-02-12T18:16:58;10.40;;;4.10;;
842;SDS011;407;48.884;9.126;2023-02-12T18:19:24;11.65;;;5.22;;
842;SDS011;407;48.884;9.126;2023-02-12T18:21:51;11.30;;;5.03;;
842;SDS011;407;48.884;9.126;2023-02-12T18:24:16;10.13;;;4.60;;
842;SDS011;407;48.884;9.126;2023-02-12T18:26:42;12.13;;;5.43;;
842;SDS011;407;48.884;9.126;2023-02-12T18:29:09;11.13;;;4.50;;
842;SDS011;407;48.884;9.126;2023-02-12T18:31:36;12.80;;;5.00;;
842;SDS011;407;48.884;9.126;2023-02-12T18:34:05;12.93;;;5.13;;
842;SDS011;407;48.884;9.126;2023-02-12T18:36:31;12.53;;;5.33;;
842;SDS011;407;48.884;9.126;2023-02-12T18:38:57;12.70;;;5.32;;
842;SDS011;407;48.884;9.126;2023-02-12T18:41:26;10.80;;;4.30;;
842;SDS011;407;48.884;9.126;2023-02-12T18:43:55;10.10;;;4.32;;
842;SDS011;407;48.884;9.126;2023-02-12T18:46:23;11.48;;;5.03;;
842;SDS011;407;48.884;9.126;2023-02-12T18:48:50;11.18;;;5.30;;
842;SDS011;407;48.884;9.126;2023-02-12T18:51:18;14.45;;;5.75;;
842;SDS011;407;48.884;9.126;2023-02-12T18:53:46;12.00;;;5.63;;